Time;durP1;ratioP1;P1;durP2;ratioP2;P2;SDS_P1;SDS_P2;PMS_P1;PMS_P2;Temp;Humidity;BMP_temperature;BMP_pressure;BME280_temperature;BME280_humidity;BME280_pressure;Samples;Min_cycle;Max_cycle;Signal;HPM_P1;HPM_P2
2023/11/06 00:00:17;;;;;;;4.70;1.67;;;10.60;90.00;;;;;;5031872;28;20478;-35
2023/11/06 00:02:44;;;;;;;4.10;1.50;;;10.60;90.00;;;;;;5032896;28;20032;-35
2023/11/06 00:05:10;;;;;;;7.95;1.90;;;10.60;90.00;;;;;;5032839;28;20033;-34
2023/11/06 00:07:35;;;;;;;4.63;1.52;;;10.60;90.00;;;;;;5033060;28;20083;-36
2023/11/06 00:10:01;;;;;;;5.15;1.50;;;10.60;90.00;;;;;;5032492;28;20515;-36
2023/11/06 00:12:27;;;;;;;5.20;1.55;;;10.60;90.00;;;;;;5032544;28;20092;-34
2023/11/06 00:14:53;;;;;;;6.18;1.60;;;10.60;90.10;;;;;;5032629;28;20021;-36
2023/11/06 00:17:19;;;;;;;4.78;1.55;;;10.60;90.00;;;;;;5032737;28;20543;-33
2023/11/06 00:19:44;;;;;;;3.70;1.40;;;10.60;90.00;;;;;;5032289;28;20033;-36
2023/11/06 00:22:10;;;;;;;4.10;1.23;;;10.70;90.10;;;;;;5032292;28;20029;-35
2023/11/06 00:24:37;;;;;;;4.55;1.20;;;10.60;90.00;;;;;;5032658;28;20029;-35
2023/11/06 00:27:03;;;;;;;4.85;1.42;;;10.60;90.00;;;;;;5032296;28;20090;-35
2023/11/06 00:29:30;;;;;;;5.13;1.58;;;10.70;90.00;;;;;;5032439;28;20112;-34
2023/11/06 00:31:56;;;;;;;4.07;1.33;;;10.60;90.00;;;;;;5032525;28;20528;-35
2023/11/06 00:34:21;;;;;;;4.03;1.35;;;10.60;90.00;;;;;;5032223;28;20029;-35
2023/11/06 00:36:47;;;;;;;3.15;1.20;;;10.60;90.00;;;;;;5032537;28;20048;-35
2023/11/06 00:39:13;;;;;;;3.08;1.40;;;10.60;90.10;;;;;;5032354;28;20040;-36
2023/11/06 00:41:40;;;;;;;3.63;1.30;;;10.50;90.10;;;;;;5031900;28;20041;-36
2023/11/06 00:44:06;;;;;;;1.63;1.00;;;10.50;90.10;;;;;;5032162;28;20508;-34
2023/11/06 00:46:32;;;;;;;2.72;0.98;;;10.40;90.10;;;;;;5031937;28;20022;-35
2023/11/06 00:48:57;;;;;;;4.22;1.20;;;10.50;90.20;;;;;;5031820;28;20103;-36
2023/11/06 00:51:23;;;;;;;4.07;1.45;;;10.40;90.20;;;;;;5032056;28;20033;-36
2023/11/06 00:53:49;;;;;;;2.47;1.20;;;10.40;90.20;;;;;;5031792;28;20034;-35
2023/11/06 00:56:15;;;;;;;4.60;1.38;;;10.50;90.20;;;;;;5032221;28;20440;-36
2023/11/06 00:58:41;;;;;;;5.97;1.35;;;10.50;90.20;;;;;;5032131;28;20042;-35
2023/11/06 01:01:06;;;;;;;3.35;1.08;;;10.50;90.20;;;;;;5032222;28;20045;-34
2023/11/06 01:03:32;;;;;;;2.05;1.25;;;10.50;90.20;;;;;;5030392;28;20029;-38
2023/11/06 01:05:59;;;;;;;3.50;1.30;;;10.50;90.10;;;;;;5031752;28;20108;-33
2023/11/06 01:08:25;;;;;;;3.22;1.20;;;10.50;90.20;;;;;;5032014;28;20032;-36
2023/11/06 01:10:50;;;;;;;2.90;1.35;;;10.40;90.20;;;;;;5031713;28;20339;-34
2023/11/06 01:13:16;;;;;;;3.33;1.20;;;10.40;90.20;;;;;;5031577;28;20125;-36
2023/11/06 01:15:42;;;;;;;4.85;1.50;;;10.40;90.20;;;;;;5031573;28;20072;-36
2023/11/06 01:18:09;;;;;;;3.65;1.45;;;10.40;90.20;;;;;;5031496;28;20041;-36
2023/11/06 01:20:35;;;;;;;4.80;1.30;;;10.40;90.30;;;;;;5031526;28;20022;-36
2023/11/06 01:23:01;;;;;;;2.08;0.98;;;10.40;90.20;;;;;;5031282;28;20065;-35
2023/11/06 01:25:26;;;;;;;3.33;1.17;;;10.40;90.20;;;;;;5030349;28;20076;-36
2023/11/06 01:27:52;;;;;;;3.08;1.00;;;10.40;90.20;;;;;;5031532;28;20125;-35
2023/11/06 01:30:18;;;;;;;2.38;1.00;;;10.40;90.20;;;;;;5030163;28;20041;-35
2023/11/06 01:32:44;;;;;;;3.55;1.58;;;10.30;90.20;;;;;;5031509;28;20083;-36
2023/11/06 01:35:11;;;;;;;5.03;1.30;;;10.40;90.20;;;;;;5031464;28;20067;-35
2023/11/06 01:37:38;;;;;;;3.13;0.82;;;10.30;90.20;;;;;;5031783;28;20025;-36
2023/11/06 01:40:07;;;;;;;2.42;1.27;;;10.40;90.20;;;;;;5031593;28;20113;-36
2023/11/06 01:42:32;;;;;;;2.60;0.70;;;10.40;90.20;;;;;;5031540;28;20022;-36
2023/11/06 01:44:58;;;;;;;5.97;1.02;;;10.40;90.20;;;;;;5031451;28;20032;-36
2023/11/06 01:47:24;;;;;;;2.95;1.00;;;10.40;90.10;;;;;;5031347;28;20521;-37
2023/11/06 01:49:50;;;;;;;2.97;1.00;;;10.40;90.10;;;;;;5031645;28;20030;-35
2023/11/06 01:52:20;;;;;;;2.33;1.00;;;10.40;90.10;;;;;;5029931;28;20512;-35
2023/11/06 01:54:45;;;;;;;3.63;1.08;;;10.50;90.10;;;;;;5031347;28;20025;-35
2023/11/06 01:57:15;;;;;;;3.25;1.05;;;10.50;90.00;;;;;;5031555;28;20030;-35
2023/11/06 01:59:42;;;;;;;2.80;0.90;;;10.50;89.90;;;;;;5031199;28;20101;-34
2023/11/06 02:02:08;;;;;;;1.92;0.80;;;10.60;89.90;;;;;;5032639;28;20029;-35
2023/11/06 02:04:34;;;;;;;2.67;0.90;;;10.60;89.80;;;;;;5034890;28;20109;-36
2023/11/06 02:06:59;;;;;;;1.08;0.60;;;10.60;89.70;;;;;;5035155;28;20116;-35
2023/11/06 02:09:28;;;;;;;3.13;0.73;;;10.60;89.70;;;;;;5035291;28;20091;-36
2023/11/06 02:11:54;;;;;;;2.42;0.90;;;10.70;89.60;;;;;;5033456;28;20026;-35
2023/11/06 02:14:20;;;;;;;3.13;0.80;;;10.70;89.60;;;;;;5035184;28;20052;-35
2023/11/06 02:16:46;;;;;;;2.72;0.90;;;10.70;89.60;;;;;;5035002;28;20065;-35
2023/11/06 02:19:11;;;;;;;1.58;0.80;;;10.70;89.50;;;;;;5034660;28;20481;-36
2023/11/06 02:21:37;;;;;;;2.53;1.00;;;10.70;89.50;;;;;;5034690;28;20029;-35
2023/11/06 02:24:04;;;;;;;1.90;1.08;;;10.70;89.40;;;;;;5034940;28;20079;-36
2023/11/06 02:26:29;;;;;;;4.20;1.60;;;10.70;89.40;;;;;;5035089;28;20049;-36
2023/11/06 02:28:55;;;;;;;2.45;1.30;;;10.80;89.50;;;;;;5034965;28;20075;-37
2023/11/06 02:31:21;;;;;;;2.55;1.42;;;10.80;89.40;;;;;;5034394;28;20053;-36
2023/11/06 02:33:46;;;;;;;3.50;1.67;;;10.80;89.40;;;;;;5034503;28;20505;-34
2023/11/06 02:36:12;;;;;;;3.80;1.60;;;10.70;89.40;;;;;;5034819;28;20029;-35
2023/11/06 02:38:38;;;;;;;4.63;1.67;;;10.70;89.40;;;;;;5034748;28;20017;-33
2023/11/06 02:41:03;;;;;;;2.60;1.55;;;10.70;89.40;;;;;;5034487;28;20053;-32
2023/11/06 02:43:29;;;;;;;2.85;1.30;;;10.70;89.40;;;;;;5034524;28;20022;-33
2023/11/06 02:45:55;;;;;;;2.45;1.30;;;10.80;89.50;;;;;;5034639;28;20025;-35
2023/11/06 02:48:22;;;;;;;2.10;1.17;;;10.70;89.50;;;;;;5034402;28;20100;-35
2023/11/06 02:50:49;;;;;;;3.38;1.27;;;10.80;89.50;;;;;;5034082;28;20476;-35
2023/11/06 02:53:15;;;;;;;3.05;1.23;;;10.80;89.50;;;;;;5034340;28;20030;-36
2023/11/06 02:55:41;;;;;;;2.20;1.23;;;10.80;89.50;;;;;;5034096;28;20029;-36
2023/11/06 02:58:06;;;;;;;1.92;1.20;;;10.80;89.50;;;;;;5034025;28;20026;-36
2023/11/06 03:00:32;;;;;;;3.95;1.52;;;10.80;89.50;;;;;;5034014;28;20022;-35
2023/11/06 03:02:57;;;;;;;5.18;1.52;;;10.80;89.40;;;;;;5032407;28;20409;-35
2023/11/06 03:05:23;;;;;;;2.78;1.52;;;10.80;89.50;;;;;;5034250;28;20481;-36
2023/11/06 03:07:49;;;;;;;3.38;1.33;;;10.90;89.50;;;;;;5034102;28;20105;-36
2023/11/06 03:10:14;;;;;;;2.95;1.60;;;10.80;89.40;;;;;;5033758;28;20082;-35
2023/11/06 03:12:41;;;;;;;2.38;1.42;;;10.80;89.50;;;;;;5033977;28;20478;-34
2023/11/06 03:15:07;;;;;;;3.50;1.40;;;10.80;89.50;;;;;;5033653;28;20033;-36
2023/11/06 03:17:33;;;;;;;5.25;2.28;;;10.70;89.60;;;;;;5033610;28;20029;-35
2023/11/06 03:19:59;;;;;;;3.67;1.60;;;10.70;89.60;;;;;;5033475;28;20040;-34
2023/11/06 03:22:24;;;;;;;2.60;1.40;;;10.70;89.70;;;;;;5032287;28;20022;-36
2023/11/06 03:24:51;;;;;;;4.93;1.42;;;10.70;89.70;;;;;;5033570;28;20029;-35
2023/11/06 03:27:16;;;;;;;2.67;1.50;;;10.70;89.70;;;;;;5033612;28;20548;-36
2023/11/06 03:29:42;;;;;;;2.45;1.42;;;10.70;89.80;;;;;;5033171;28;20029;-35
2023/11/06 03:32:08;;;;;;;4.47;1.90;;;10.70;89.80;;;;;;5033374;28;20405;-34
2023/11/06 03:34:34;;;;;;;4.53;1.30;;;10.70;89.80;;;;;;5033577;28;20071;-35
2023/11/06 03:36:59;;;;;;;3.90;1.60;;;10.70;89.70;;;;;;5033241;28;20097;-34
2023/11/06 03:39:25;;;;;;;4.75;1.25;;;10.70;89.70;;;;;;5033279;28;20029;-36
2023/11/06 03:41:50;;;;;;;3.38;1.40;;;10.70;89.70;;;;;;5033207;28;20025;-35
2023/11/06 03:44:16;;;;;;;4.10;1.52;;;10.70;89.70;;;;;;5033490;28;20022;-36
2023/11/06 03:46:42;;;;;;;4.32;1.40;;;10.70;89.50;;;;;;5033259;28;20388;-35
2023/11/06 03:49:07;;;;;;;3.88;1.50;;;10.70;89.50;;;;;;5033039;28;20032;-35
2023/11/06 03:51:33;;;;;;;2.97;1.60;;;10.70;89.60;;;;;;5032833;28;20445;-35
2023/11/06 03:53:58;;;;;;;6.25;1.33;;;10.70;89.60;;;;;;5032916;28;20025;-33
2023/11/06 03:56:24;;;;;;;2.60;1.20;;;10.70;89.60;;;;;;5032908;28;20029;-36
2023/11/06 03:58:49;;;;;;;1.83;1.10;;;10.70;89.60;;;;;;5032781;28;20034;-34
2023/11/06 04:01:15;;;;;;;5.30;1.30;;;10.70;89.60;;;;;;5032846;28;20529;-36
2023/11/06 04:03:41;;;;;;;5.63;1.38;;;10.70;89.50;;;;;;5033001;28;20033;-36
2023/11/06 04:06:08;;;;;;;4.22;1.40;;;10.70;89.60;;;;;;5032826;28;20047;-36
2023/11/06 04:08:34;;;;;;;4.63;1.35;;;10.60;89.60;;;;;;5032969;28;20030;-36
2023/11/06 04:11:00;;;;;;;2.22;0.90;;;10.60;89.70;;;;;;5032889;28;20389;-35
2023/11/06 04:13:25;;;;;;;2.25;0.98;;;10.60;89.70;;;;;;5032837;28;20036;-36
2023/11/06 04:15:51;;;;;;;3.28;1.13;;;10.60;89.60;;;;;;5032538;28;20030;-35
2023/11/06 04:18:16;;;;;;;1.80;0.90;;;10.50;89.60;;;;;;5032444;28;20022;-36
2023/11/06 04:20:42;;;;;;;3.40;1.25;;;10.50;89.60;;;;;;5032491;28;20353;-35
2023/11/06 04:23:09;;;;;;;4.43;1.10;;;10.50;89.70;;;;;;5032620;28;20432;-35
2023/11/06 04:25:36;;;;;;;3.85;1.10;;;10.40;89.70;;;;;;5032206;28;20101;-36
2023/11/06 04:28:02;;;;;;;2.78;1.10;;;10.40;89.80;;;;;;5032276;28;20025;-33
2023/11/06 04:30:27;;;;;;;4.55;1.35;;;10.40;89.80;;;;;;5032332;28;20338;-36
2023/11/06 04:32:53;;;;;;;1.65;0.90;;;10.40;89.80;;;;;;5030938;28;20017;-34
2023/11/06 04:35:18;;;;;;;2.35;0.85;;;10.30;89.80;;;;;;5032273;28;20524;-35
2023/11/06 04:37:46;;;;;;;3.17;1.02;;;10.30;89.90;;;;;;5032321;28;20474;-36
2023/11/06 04:40:12;;;;;;;6.50;1.02;;;10.30;90.00;;;;;;5032361;28;20029;-35
2023/11/06 04:42:40;;;;;;;2.03;0.80;;;10.20;90.00;;;;;;5032312;28;20024;-36
2023/11/06 04:45:08;;;;;;;3.58;0.80;;;10.20;90.00;;;;;;5032464;28;20052;-37
2023/11/06 04:47:34;;;;;;;1.10;0.73;;;10.20;90.00;;;;;;5032176;28;20021;-35
2023/11/06 04:50:00;;;;;;;1.92;0.95;;;10.20;90.00;;;;;;5032185;28;20559;-35
2023/11/06 04:52:25;;;;;;;1.15;0.70;;;10.10;90.00;;;;;;5031874;28;20112;-37
2023/11/06 04:54:51;;;;;;;3.53;0.90;;;10.10;90.00;;;;;;5031948;28;20029;-34
2023/11/06 04:57:16;;;;;;;2.05;0.88;;;10.10;90.10;;;;;;5031810;28;20084;-37
2023/11/06 04:59:42;;;;;;;2.08;0.90;;;10.10;90.10;;;;;;5032031;28;20481;-34
2023/11/06 05:02:08;;;;;;;2.05;0.82;;;10.00;90.00;;;;;;5031944;28;20021;-35
2023/11/06 05:04:34;;;;;;;3.25;0.90;;;10.00;90.00;;;;;;5032275;28;20024;-36
2023/11/06 05:07:02;;;;;;;2.60;0.90;;;10.00;90.10;;;;;;5031719;28;20470;-35
2023/11/06 05:09:28;;;;;;;2.65;0.80;;;9.90;90.10;;;;;;5031678;28;20029;-41
2023/11/06 05:11:54;;;;;;;1.50;0.68;;;9.90;90.10;;;;;;5031558;28;20041;-34
2023/11/06 05:14:19;;;;;;;1.75;0.70;;;9.90;90.10;;;;;;5031938;28;20025;-35
2023/11/06 05:16:45;;;;;;;2.03;0.70;;;9.80;90.10;;;;;;5031553;28;20489;-38
2023/11/06 05:19:11;;;;;;;2.55;0.63;;;9.90;90.10;;;;;;5030706;28;20061;-34
2023/11/06 05:21:36;;;;;;;2.65;0.90;;;9.80;90.10;;;;;;5031422;28;20393;-37
2023/11/06 05:24:02;;;;;;;3.88;0.80;;;9.80;90.10;;;;;;5031486;28;20018;-33
2023/11/06 05:26:28;;;;;;;3.20;0.88;;;9.80;90.10;;;;;;5031509;28;20450;-33
2023/11/06 05:28:53;;;;;;;2.45;0.50;;;9.80;90.10;;;;;;5031512;28;20022;-35
2023/11/06 05:31:19;;;;;;;1.05;0.60;;;9.80;90.10;;;;;;5031301;28;20050;-35
2023/11/06 05:33:45;;;;;;;1.98;0.60;;;9.80;90.10;;;;;;5031518;28;20026;-35
2023/11/06 05:36:14;;;;;;;1.55;0.70;;;9.80;90.10;;;;;;5031822;28;20026;-34
2023/11/06 05:38:40;;;;;;;3.90;0.65;;;9.70;90.10;;;;;;5035279;28;20032;-35
2023/11/06 05:41:08;;;;;;;4.00;0.60;;;9.70;90.00;;;;;;5035609;28;20013;-35
2023/11/06 05:43:34;;;;;;;4.75;0.93;;;9.70;90.00;;;;;;5035348;28;20078;-34
2023/11/06 05:46:00;;;;;;;3.25;0.82;;;9.70;90.00;;;;;;5035328;28;20112;-35
2023/11/06 05:48:25;;;;;;;1.30;0.50;;;9.70;90.00;;;;;;5035252;28;20031;-35
2023/11/06 05:50:51;;;;;;;2.85;0.70;;;9.70;90.00;;;;;;5035313;28;20025;-36
2023/11/06 05:53:17;;;;;;;3.55;0.90;;;9.70;90.00;;;;;;5035409;28;20108;-34
2023/11/06 05:55:42;;;;;;;4.07;0.77;;;9.70;90.00;;;;;;5035348;28;20013;-33
2023/11/06 05:58:08;;;;;;;1.80;0.75;;;9.80;90.10;;;;;;5035130;28;20021;-35
2023/11/06 06:00:34;;;;;;;2.20;0.70;;;9.80;90.10;;;;;;5035118;28;20021;-35
2023/11/06 06:03:03;;;;;;;3.58;0.80;;;9.80;90.00;;;;;;5033848;28;20022;-35
2023/11/06 06:05:29;;;;;;;3.13;0.88;;;9.90;90.00;;;;;;5035362;28;20087;-34
2023/11/06 06:07:55;;;;;;;1.75;0.85;;;9.90;89.90;;;;;;5035196;28;20021;-33
2023/11/06 06:10:20;;;;;;;4.70;0.93;;;10.00;89.80;;;;;;5034915;28;20061;-34
2023/11/06 06:12:48;;;;;;;6.55;1.35;;;10.00;89.70;;;;;;5034658;28;20112;-35
2023/11/06 06:15:14;;;;;;;4.72;1.00;;;10.00;89.60;;;;;;5034680;28;20036;-35
2023/11/06 06:17:40;;;;;;;3.40;1.10;;;10.00;89.60;;;;;;5033529;28;20029;-35
2023/11/06 06:20:15;;;;;;;4.72;1.13;;;10.00;89.60;;;;;;5034843;28;20048;-35
2023/11/06 06:22:41;;;;;;;4.28;1.55;;;10.00;89.60;;;;;;5034554;28;20070;-36
2023/11/06 06:25:08;;;;;;;4.72;1.35;;;10.10;89.60;;;;;;5034721;28;20021;-36
2023/11/06 06:27:37;;;;;;;5.93;1.63;;;10.10;89.50;;;;;;5034635;28;20516;-36
2023/11/06 06:30:06;;;;;;;6.00;1.55;;;10.10;89.40;;;;;;5034051;28;20038;-35
2023/11/06 06:32:31;;;;;;;4.72;1.30;;;10.20;89.40;;;;;;5033211;28;20037;-35
2023/11/06 06:34:58;;;;;;;4.13;1.70;;;10.20;89.30;;;;;;5033317;28;20370;-36
2023/11/06 06:37:23;;;;;;;3.78;1.70;;;10.20;89.30;;;;;;5033348;28;20444;-36
2023/11/06 06:39:49;;;;;;;9.82;1.50;;;10.20;89.30;;;;;;5033332;28;20104;-34
2023/11/06 06:42:16;;;;;;;5.97;2.03;;;10.30;89.20;;;;;;5032861;28;20568;-35
2023/11/06 06:44:41;;;;;;;6.22;1.70;;;10.30;89.20;;;;;;5033224;28;20017;-35
2023/11/06 06:47:08;;;;;;;6.75;1.90;;;10.30;89.10;;;;;;5032620;28;20041;-36
2023/11/06 06:49:39;;;;;;;6.10;1.63;;;10.30;89.10;;;;;;5031706;28;20021;-36
2023/11/06 06:52:05;;;;;;;5.95;2.00;;;10.30;89.10;;;;;;5032870;28;20030;-35
2023/11/06 06:54:31;;;;;;;4.68;1.90;;;10.30;89.10;;;;;;5033139;28;20025;-36
2023/11/06 06:56:57;;;;;;;5.57;2.28;;;10.30;89.10;;;;;;5032750;28;20032;-36
2023/11/06 06:59:23;;;;;;;7.47;2.70;;;10.30;89.20;;;;;;5032806;28;20050;-36
2023/11/06 07:01:48;;;;;;;4.80;2.17;;;10.40;89.20;;;;;;5032731;28;20025;-35
2023/11/06 07:04:14;;;;;;;5.40;1.95;;;10.40;89.20;;;;;;5032744;28;20063;-27
2023/11/06 07:06:40;;;;;;;5.57;2.05;;;10.40;89.20;;;;;;5032975;28;20017;-28
2023/11/06 07:09:06;;;;;;;6.80;1.83;;;10.30;89.10;;;;;;5032837;28;20021;-27
2023/11/06 07:11:32;;;;;;;5.35;2.03;;;10.30;89.20;;;;;;5032484;28;20162;-30
2023/11/06 07:13:57;;;;;;;7.20;2.30;;;10.30;89.20;;;;;;5032562;28;20115;-27
2023/11/06 07:16:23;;;;;;;8.25;2.65;;;10.20;89.30;;;;;;5032400;28;20071;-28
2023/11/06 07:18:49;;;;;;;8.38;2.20;;;10.20;89.30;;;;;;5032345;28;20021;-29
2023/11/06 07:21:17;;;;;;;7.53;2.05;;;10.20;89.40;;;;;;5032624;28;20418;-28
2023/11/06 07:23:44;;;;;;;7.95;2.28;;;10.20;89.40;;;;;;5032635;28;20025;-30
2023/11/06 07:26:09;;;;;;;8.40;2.35;;;10.20;89.30;;;;;;5032784;28;20092;-29
2023/11/06 07:28:35;;;;;;;6.40;1.98;;;10.20;89.30;;;;;;5032422;28;20520;-31
2023/11/06 07:31:01;;;;;;;5.80;1.90;;;10.20;89.20;;;;;;4996121;28;1064093;-32
2023/11/06 07:33:26;;;;;;;9.77;2.30;;;10.20;89.10;;;;;;5033172;28;20088;-26
2023/11/06 07:35:52;;;;;;;4.75;1.88;;;10.20;89.10;;;;;;5033345;28;20033;-29
2023/11/06 07:38:18;;;;;;;4.38;1.83;;;10.20;89.20;;;;;;5033341;28;20040;-27
2023/11/06 07:40:44;;;;;;;8.27;1.98;;;10.30;89.20;;;;;;5033374;28;20104;-30
2023/11/06 07:43:09;;;;;;;4.25;1.90;;;10.20;89.10;;;;;;5032947;28;20034;-31
2023/11/06 07:45:35;;;;;;;9.70;2.00;;;10.30;88.90;;;;;;5033143;28;20422;-29
2023/11/06 07:48:05;;;;;;;7.32;2.05;;;10.20;88.70;;;;;;5033194;28;20031;-31
2023/11/06 07:50:35;;;;;;;8.95;2.10;;;10.20;88.70;;;;;;5033115;28;20440;-31
2023/11/06 07:53:01;;;;;;;7.85;2.10;;;10.30;88.80;;;;;;5032784;28;20029;-28
2023/11/06 07:55:27;;;;;;;5.72;1.90;;;10.30;88.70;;;;;;5033052;28;20025;-29
2023/11/06 07:57:53;;;;;;;8.23;2.00;;;10.40;88.60;;;;;;5033179;28;20436;-30
2023/11/06 08:00:19;;;;;;;4.88;1.52;;;10.40;88.50;;;;;;5032424;28;20026;-29
2023/11/06 08:02:44;;;;;;;5.82;2.10;;;10.50;88.30;;;;;;5032253;28;20053;-31
2023/11/06 08:05:10;;;;;;;6.20;1.92;;;10.50;88.10;;;;;;5032632;28;20032;-31
2023/11/06 08:07:37;;;;;;;9.32;2.30;;;10.60;88.00;;;;;;5032689;28;20457;-30
2023/11/06 08:10:03;;;;;;;10.18;2.13;;;10.60;87.90;;;;;;5032554;28;20487;-29
2023/11/06 08:12:29;;;;;;;6.22;1.73;;;10.60;87.60;;;;;;5032476;28;20079;-31
2023/11/06 08:14:55;;;;;;;4.40;1.52;;;10.60;87.60;;;;;;5032459;28;20406;-31
2023/11/06 08:17:21;;;;;;;7.30;2.35;;;10.60;87.40;;;;;;5032723;28;20116;-28
2023/11/06 08:19:47;;;;;;;8.82;2.22;;;10.60;87.30;;;;;;5032603;28;20504;-27
2023/11/06 08:22:12;;;;;;;6.95;1.83;;;10.60;87.10;;;;;;5032289;28;20033;-28
2023/11/06 08:24:38;;;;;;;9.73;1.63;;;10.60;87.00;;;;;;5032972;28;20059;-29
2023/11/06 08:27:04;;;;;;;5.93;1.90;;;10.60;87.00;;;;;;5032500;28;20404;-28
2023/11/06 08:29:30;;;;;;;7.20;1.55;;;10.60;86.90;;;;;;5032454;28;20033;-29
2023/11/06 08:31:59;;;;;;;6.85;2.22;;;10.70;86.90;;;;;;5032077;28;20029;-34
2023/11/06 08:34:25;;;;;;;7.25;1.83;;;10.60;86.90;;;;;;5032377;28;20036;-30
2023/11/06 08:36:51;;;;;;;5.88;1.33;;;10.60;86.70;;;;;;5032064;28;20389;-27
2023/11/06 08:39:17;;;;;;;6.65;1.63;;;10.60;86.70;;;;;;5032024;28;20116;-29
2023/11/06 08:41:44;;;;;;;6.93;1.50;;;10.60;86.80;;;;;;5032110;28;20505;-29
2023/11/06 08:44:09;;;;;;;6.00;1.70;;;10.60;86.90;;;;;;5031989;28;20025;-28
2023/11/06 08:46:35;;;;;;;7.82;1.60;;;10.70;86.60;;;;;;5030507;28;20120;-28
2023/11/06 08:49:00;;;;;;;4.63;1.80;;;10.70;86.50;;;;;;5031976;28;20128;-30
2023/11/06 08:51:29;;;;;;;9.27;1.73;;;10.70;86.30;;;;;;5032110;28;20401;-28
2023/11/06 08:53:54;;;;;;;6.68;1.55;;;10.80;86.20;;;;;;5031898;28;20504;-29
2023/11/06 08:56:21;;;;;;;5.90;1.52;;;10.80;86.00;;;;;;5032096;28;20033;-27
2023/11/06 08:58:46;;;;;;;7.57;1.80;;;10.90;86.10;;;;;;5031621;28;20510;-27
2023/11/06 09:01:12;;;;;;;8.50;2.33;;;10.90;86.00;;;;;;5031540;28;20021;-29
2023/11/06 09:03:38;;;;;;;8.38;1.73;;;10.90;86.00;;;;;;5031550;28;20026;-28
2023/11/06 09:06:04;;;;;;;7.85;2.22;;;11.00;86.10;;;;;;5031561;28;20312;-28
2023/11/06 09:08:31;;;;;;;10.82;1.95;;;11.10;86.00;;;;;;5031670;28;20095;-27
2023/11/06 09:10:57;;;;;;;6.90;1.95;;;11.20;85.80;;;;;;5030168;28;20078;-28
2023/11/06 09:13:22;;;;;;;8.90;2.08;;;11.20;85.80;;;;;;5031867;28;20063;-26
2023/11/06 09:15:49;;;;;;;8.15;2.30;;;11.40;85.60;;;;;;5031500;28;20026;-27
2023/11/06 09:18:19;;;;;;;10.73;2.50;;;11.40;85.10;;;;;;5031115;28;20421;-28
2023/11/06 09:20:48;;;;;;;9.88;2.45;;;11.60;85.10;;;;;;5029863;28;20261;-28
2023/11/06 09:23:14;;;;;;;8.82;2.13;;;11.70;84.50;;;;;;5031187;28;20021;-31
2023/11/06 09:25:40;;;;;;;7.57;1.95;;;11.80;84.40;;;;;;5031853;28;20362;-28
2023/11/06 09:28:05;;;;;;;9.27;2.30;;;11.80;84.00;;;;;;5031509;28;20080;-29
2023/11/06 09:30:31;;;;;;;6.45;1.90;;;11.80;83.80;;;;;;5031391;28;20096;-33
2023/11/06 09:32:57;;;;;;;9.25;2.45;;;11.80;84.00;;;;;;5029912;28;20037;-31
2023/11/06 09:35:24;;;;;;;8.50;2.13;;;11.80;84.50;;;;;;5031744;28;20060;-28
2023/11/06 09:37:49;;;;;;;6.78;1.90;;;11.80;83.80;;;;;;5031578;28;20543;-29
2023/11/06 09:40:21;;;;;;;6.63;1.95;;;11.90;83.80;;;;;;5031331;28;20065;-35
2023/11/06 09:42:48;;;;;;;7.60;1.80;;;11.90;83.30;;;;;;5031000;28;20025;-30
2023/11/06 09:45:14;;;;;;;11.02;2.28;;;12.00;83.20;;;;;;5031381;28;20072;-33
2023/11/06 09:47:51;;;;;;;10.65;2.15;;;12.00;83.10;;;;;;5031331;28;20393;-35
2023/11/06 09:50:19;;;;;;;13.52;2.47;;;12.10;83.40;;;;;;5031276;28;20104;-30
2023/11/06 09:52:49;;;;;;;7.70;1.55;;;12.10;82.70;;;;;;5031078;28;20540;-29
2023/11/06 09:55:20;;;;;;;8.70;2.50;;;12.10;82.60;;;;;;5031505;28;20529;-32
2023/11/06 09:57:48;;;;;;;6.88;2.03;;;12.20;82.90;;;;;;5031205;28;20032;-30
2023/11/06 10:00:17;;;;;;;7.78;2.67;;;12.30;82.50;;;;;;5031024;28;20032;-28
2023/11/06 10:02:48;;;;;;;9.05;2.35;;;12.40;82.00;;;;;;5030894;28;20021;-30
2023/11/06 10:05:15;;;;;;;7.03;1.73;;;12.40;81.90;;;;;;5031179;28;20025;-31
2023/11/06 10:07:42;;;;;;;11.30;2.10;;;12.50;81.70;;;;;;5031122;28;20037;-31
2023/11/06 10:10:16;;;;;;;7.18;1.80;;;12.60;81.30;;;;;;5031523;28;20087;-28
2023/11/06 10:12:42;;;;;;;5.40;1.83;;;12.60;81.30;;;;;;5030853;28;20037;-30
2023/11/06 10:15:11;;;;;;;7.70;1.67;;;12.70;81.30;;;;;;5031433;28;20470;-34
2023/11/06 10:17:38;;;;;;;8.38;1.73;;;12.70;81.00;;;;;;5031223;28;20604;-31
2023/11/06 10:20:23;;;;;;;5.78;1.98;;;12.80;80.60;;;;;;5030896;28;20030;-33
2023/11/06 10:22:56;;;;;;;8.98;2.03;;;12.80;80.80;;;;;;5032312;28;20474;-45
2023/11/06 10:25:26;;;;;;;9.97;2.20;;;12.80;80.60;;;;;;5034804;28;20032;-45
2023/11/06 10:27:51;;;;;;;8.68;2.03;;;12.80;80.00;;;;;;5034633;28;20636;-41
2023/11/06 10:30:17;;;;;;;7.68;1.90;;;12.80;79.90;;;;;;5034503;28;20053;-46
2023/11/06 10:32:43;;;;;;;6.97;2.22;;;12.70;80.70;;;;;;5034553;28;20026;-45
2023/11/06 10:35:13;;;;;;;8.05;2.10;;;12.70;80.00;;;;;;5034331;28;20056;-46
2023/11/06 10:37:41;;;;;;;8.50;1.90;;;12.70;80.20;;;;;;5034448;28;20033;-45
2023/11/06 10:40:12;;;;;;;4.57;1.30;;;12.80;80.40;;;;;;5032581;28;20117;-44
2023/11/06 10:42:44;;;;;;;7.07;1.90;;;12.90;80.00;;;;;;5034376;28;20071;-46
2023/11/06 10:45:11;;;;;;;10.13;2.30;;;12.90;79.80;;;;;;5032834;28;20025;-46
2023/11/06 10:47:42;;;;;;;12.52;2.35;;;13.00;79.50;;;;;;5034393;28;20489;-44
2023/11/06 10:50:12;;;;;;;9.25;3.20;;;13.00;78.70;;;;;;5034378;28;20029;-47
2023/11/06 10:52:44;;;;;;;10.48;2.60;;;13.00;78.70;;;;;;5034334;28;20032;-44
2023/11/06 10:55:13;;;;;;;11.80;2.60;;;13.10;78.50;;;;;;5034078;28;20494;-46
2023/11/06 10:57:40;;;;;;;11.27;2.50;;;13.10;78.30;;;;;;5034363;28;20030;-46
2023/11/06 11:00:10;;;;;;;7.68;2.13;;;13.10;78.30;;;;;;5033780;28;20036;-44
2023/11/06 11:02:53;;;;;;;6.63;2.25;;;13.10;78.10;;;;;;5033130;28;20112;-44
2023/11/06 11:05:24;;;;;;;7.40;2.05;;;13.20;78.30;;;;;;5033956;28;20040;-45
2023/11/06 11:07:51;;;;;;;8.75;2.45;;;13.10;78.00;;;;;;5034021;28;20017;-45
2023/11/06 11:10:19;;;;;;;8.50;2.13;;;13.10;78.00;;;;;;5033767;28;20052;-39
2023/11/06 11:12:52;;;;;;;13.07;2.40;;;13.10;77.60;;;;;;5032288;28;20026;-44
2023/11/06 11:15:25;;;;;;;6.07;2.03;;;13.10;77.80;;;;;;5033782;28;20080;-45
2023/11/06 11:18:09;;;;;;;12.43;2.20;;;13.10;77.70;;;;;;5033654;28;20397;-44
2023/11/06 11:20:52;;;;;;;6.93;2.03;;;13.10;77.60;;;;;;5033465;28;20040;-44
2023/11/06 11:23:38;;;;;;;10.15;2.33;;;13.10;77.50;;;;;;5033689;28;20359;-44
2023/11/06 11:26:05;;;;;;;6.90;1.77;;;13.10;77.80;;;;;;5033519;28;20022;-44
2023/11/06 11:28:59;;;;;;;11.55;1.95;;;13.10;78.00;;;;;;5033661;28;20036;-45
2023/11/06 11:31:31;;;;;;;9.55;2.42;;;13.20;77.80;;;;;;5033042;28;20046;-42
2023/11/06 11:33:56;;;;;;;7.95;1.80;;;13.20;77.70;;;;;;5032268;28;20037;-43
2023/11/06 11:36:33;;;;;;;4.38;1.92;;;13.20;77.70;;;;;;5033570;28;20029;-45
2023/11/06 11:39:01;;;;;;;8.80;1.88;;;13.10;77.80;;;;;;5033160;28;20033;-45
2023/11/06 11:41:27;;;;;;;7.18;2.40;;;13.10;77.70;;;;;;5033557;28;20071;-45
2023/11/06 11:44:04;;;;;;;8.20;2.42;;;13.10;77.40;;;;;;5033142;28;20211;-45
2023/11/06 11:46:34;;;;;;;7.38;2.20;;;13.00;77.60;;;;;;5031865;28;20104;-33
2023/11/06 11:49:00;;;;;;;7.32;1.92;;;13.00;77.80;;;;;;5033203;28;20032;-33
2023/11/06 11:51:51;;;;;;;7.75;1.90;;;13.00;78.00;;;;;;5033034;28;20029;-35
2023/11/06 11:54:30;;;;;;;9.65;2.00;;;13.00;77.80;;;;;;5032821;28;20121;-35
2023/11/06 11:56:57;;;;;;;9.85;1.88;;;13.10;78.10;;;;;;5032831;28;20053;-33
2023/11/06 11:59:26;;;;;;;9.75;2.33;;;13.10;78.10;;;;;;5032709;28;20030;-31
2023/11/06 12:01:53;;;;;;;6.47;2.20;;;13.20;77.50;;;;;;5032835;28;20029;-31
2023/11/06 12:04:20;;;;;;;5.75;1.70;;;13.10;77.60;;;;;;5032830;28;20028;-30
2023/11/06 12:06:47;;;;;;;12.52;2.35;;;13.10;76.90;;;;;;5032687;28;20107;-31
2023/11/06 12:09:13;;;;;;;8.13;1.80;;;13.10;77.00;;;;;;5031368;28;20107;-30
2023/11/06 12:11:39;;;;;;;4.93;1.73;;;13.10;77.30;;;;;;5032378;28;20037;-29
2023/11/06 12:14:04;;;;;;;7.53;1.90;;;13.10;77.50;;;;;;5032557;28;20033;-30
2023/11/06 12:16:30;;;;;;;7.85;2.15;;;13.10;77.60;;;;;;5032421;28;20030;-32
2023/11/06 12:18:57;;;;;;;8.13;1.98;;;13.10;77.80;;;;;;5032193;28;20040;-31
2023/11/06 12:21:22;;;;;;;6.18;1.90;;;13.20;77.90;;;;;;5032363;28;20061;-30
2023/11/06 12:23:48;;;;;;;9.85;1.92;;;13.30;78.00;;;;;;5032917;28;20053;-32
2023/11/06 12:26:17;;;;;;;6.40;1.83;;;13.20;77.70;;;;;;5032359;28;20033;-32
2023/11/06 12:28:43;;;;;;;5.38;1.60;;;13.30;78.00;;;;;;5032167;28;20029;-32
2023/11/06 12:31:09;;;;;;;6.10;1.80;;;13.30;78.10;;;;;;5032020;28;20099;-29
2023/11/06 12:33:34;;;;;;;6.07;1.60;;;13.30;78.10;;;;;;5032204;28;20478;-29
2023/11/06 12:36:00;;;;;;;9.52;2.00;;;13.30;78.00;;;;;;5032094;28;20030;-31
2023/11/06 12:38:38;;;;;;;7.13;1.77;;;13.30;77.90;;;;;;5032022;28;20475;-35
2023/11/06 12:41:05;;;;;;;7.00;1.92;;;13.30;78.10;;;;;;5032248;28;20028;-32
2023/11/06 12:43:32;;;;;;;4.40;1.48;;;13.30;78.10;;;;;;5031911;28;20049;-33
2023/11/06 12:46:01;;;;;;;4.28;1.60;;;13.30;78.00;;;;;;5031582;28;20049;-31